Time;durP1;ratioP1;P1;durP2;ratioP2;P2;SDS_P1;SDS_P2;PMS_P1;PMS_P2;Temp;Humidity;BMP_temperature;BMP_pressure;BME280_temperature;BME280_humidity;BME280_pressure;Samples;Min_cycle;Max_cycle;Signal;HPM_P1;HPM_P2
2023/09/30 00:00:33;;;;;;;0.80;0.80;;;;;;;;;;5137160;27;20523;-63
2023/09/30 00:03:00;;;;;;;0.80;0.80;;;;;;;;;;5136814;27;20443;-63
2023/09/30 00:05:28;;;;;;;0.80;0.80;;;;;;;;;;5136640;27;21004;-63
2023/09/30 00:07:55;;;;;;;0.90;0.90;;;;;;;;;;5136816;27;20821;-63
2023/09/30 00:10:22;;;;;;;0.80;0.80;;;;;;;;;;5136817;27;20561;-63
2023/09/30 00:12:49;;;;;;;0.80;0.80;;;;;;;;;;5136312;27;20527;-63
2023/09/30 00:15:16;;;;;;;0.80;0.80;;;;;;;;;;5134985;27;20985;-63
2023/09/30 00:17:45;;;;;;;0.80;0.80;;;;;;;;;;5136661;27;20532;-63
2023/09/30 00:20:14;;;;;;;0.80;0.80;;;;;;;;;;5136525;27;20963;-63
2023/09/30 00:22:41;;;;;;;0.80;0.80;;;;;;;;;;5136746;27;20448;-63
2023/09/30 00:25:09;;;;;;;0.80;0.80;;;;;;;;;;5136838;27;20480;-63
2023/09/30 00:27:37;;;;;;;0.80;0.80;;;;;;;;;;5136620;27;20770;-63
2023/09/30 00:30:04;;;;;;;0.80;0.80;;;;;;;;;;5136435;27;20443;-63
2023/09/30 00:32:32;;;;;;;0.80;0.80;;;;;;;;;;5136414;27;20446;-64
2023/09/30 00:35:02;;;;;;;0.80;0.80;;;;;;;;;;5136427;27;20449;-63
2023/09/30 00:37:29;;;;;;;0.80;0.80;;;;;;;;;;5136357;27;20532;-63
2023/09/30 00:39:57;;;;;;;0.80;0.80;;;;;;;;;;5136311;27;20431;-63
2023/09/30 00:42:24;;;;;;;0.80;0.80;;;;;;;;;;5135981;27;20443;-63
2023/09/30 00:44:51;;;;;;;0.80;0.80;;;;;;;;;;5136325;27;20458;-63
2023/09/30 00:47:21;;;;;;;0.80;0.80;;;;;;;;;;5136212;27;20522;-64
2023/09/30 00:49:48;;;;;;;0.80;0.80;;;;;;;;;;5136586;27;20552;-64
2023/09/30 00:52:16;;;;;;;0.80;0.80;;;;;;;;;;5136539;27;20454;-64
2023/09/30 00:54:44;;;;;;;0.80;0.80;;;;;;;;;;5136496;27;20440;-64
2023/09/30 00:57:11;;;;;;;0.80;0.80;;;;;;;;;;5136464;27;20562;-64
2023/09/30 00:59:39;;;;;;;0.80;0.80;;;;;;;;;;5136473;27;20528;-64
2023/09/30 01:02:06;;;;;;;0.80;0.80;;;;;;;;;;5136217;27;20467;-64
2023/09/30 01:04:34;;;;;;;0.90;0.90;;;;;;;;;;5136219;27;20501;-64
2023/09/30 01:07:01;;;;;;;0.80;0.80;;;;;;;;;;5135898;27;20447;-64
2023/09/30 01:09:29;;;;;;;0.80;0.80;;;;;;;;;;5135944;27;20527;-64
2023/09/30 01:11:57;;;;;;;0.80;0.80;;;;;;;;;;5135971;27;20498;-64
2023/09/30 01:14:27;;;;;;;0.80;0.80;;;;;;;;;;5136237;27;20433;-64
2023/09/30 01:16:55;;;;;;;0.80;0.80;;;;;;;;;;5136055;27;20479;-64
2023/09/30 01:19:23;;;;;;;0.80;0.80;;;;;;;;;;5136194;27;20528;-64
2023/09/30 01:21:52;;;;;;;0.80;0.80;;;;;;;;;;5135905;27;20839;-64
2023/09/30 01:24:21;;;;;;;0.80;0.80;;;;;;;;;;5135712;27;20521;-64
2023/09/30 01:26:48;;;;;;;0.80;0.80;;;;;;;;;;5136071;27;20735;-63
2023/09/30 01:29:17;;;;;;;0.83;0.83;;;;;;;;;;5135688;27;20524;-64
2023/09/30 01:31:47;;;;;;;0.80;0.80;;;;;;;;;;5135693;27;20556;-64
2023/09/30 01:34:15;;;;;;;0.80;0.80;;;;;;;;;;5135744;27;20501;-64
2023/09/30 01:36:42;;;;;;;0.80;0.80;;;;;;;;;;5135434;27;20472;-64
2023/09/30 01:39:11;;;;;;;0.80;0.80;;;;;;;;;;5135442;27;20445;-64
2023/09/30 01:41:38;;;;;;;0.80;0.80;;;;;;;;;;5135166;27;20457;-64
2023/09/30 01:44:06;;;;;;;0.80;0.80;;;;;;;;;;5135381;27;20859;-64
2023/09/30 01:46:33;;;;;;;0.80;0.80;;;;;;;;;;5135065;27;20531;-64
2023/09/30 01:49:00;;;;;;;0.80;0.80;;;;;;;;;;5135648;27;20776;-65
2023/09/30 01:51:28;;;;;;;0.80;0.80;;;;;;;;;;5135530;27;20853;-64
2023/09/30 01:53:55;;;;;;;0.80;0.80;;;;;;;;;;5134759;27;20449;-65
2023/09/30 01:56:24;;;;;;;0.80;0.80;;;;;;;;;;5135124;27;20471;-64
2023/09/30 01:58:51;;;;;;;0.80;0.80;;;;;;;;;;5134772;27;20527;-65
2023/09/30 02:01:18;;;;;;;0.80;0.80;;;;;;;;;;5134700;27;20921;-64
2023/09/30 02:03:46;;;;;;;0.80;0.80;;;;;;;;;;5135129;27;20433;-64
2023/09/30 02:06:13;;;;;;;0.80;0.80;;;;;;;;;;5134646;27;20453;-64
2023/09/30 02:08:40;;;;;;;0.90;0.90;;;;;;;;;;5134940;27;20435;-64
2023/09/30 02:11:07;;;;;;;0.80;0.80;;;;;;;;;;5134720;27;20812;-64
2023/09/30 02:13:36;;;;;;;0.80;0.80;;;;;;;;;;5135665;27;20597;-63
2023/09/30 02:16:03;;;;;;;0.80;0.80;;;;;;;;;;5134335;27;20471;-63
2023/09/30 02:18:32;;;;;;;0.80;0.80;;;;;;;;;;5134466;27;20440;-63
2023/09/30 02:21:00;;;;;;;0.80;0.80;;;;;;;;;;5134592;27;20500;-63
2023/09/30 02:23:27;;;;;;;0.80;0.80;;;;;;;;;;5135068;27;20456;-63
2023/09/30 02:25:54;;;;;;;0.80;0.80;;;;;;;;;;5117220;27;20478;-64
2023/09/30 02:28:22;;;;;;;0.80;0.80;;;;;;;;;;5114115;28;20472;-64
2023/09/30 02:30:50;;;;;;;0.80;0.80;;;;;;;;;;5114051;28;20498;-63
2023/09/30 02:33:17;;;;;;;0.80;0.80;;;;;;;;;;5113686;28;20955;-63
2023/09/30 02:35:46;;;;;;;0.90;0.90;;;;;;;;;;5113724;28;20428;-64
2023/09/30 02:38:15;;;;;;;0.80;0.80;;;;;;;;;;5113203;28;20445;-64
2023/09/30 02:40:46;;;;;;;0.80;0.80;;;;;;;;;;5114035;28;20522;-63
2023/09/30 02:43:13;;;;;;;0.80;0.80;;;;;;;;;;5114049;28;20483;-63
2023/09/30 02:45:40;;;;;;;0.70;0.70;;;;;;;;;;5113855;28;20437;-64
2023/09/30 02:48:09;;;;;;;0.80;0.80;;;;;;;;;;5113930;28;20434;-64
2023/09/30 02:50:36;;;;;;;0.80;0.80;;;;;;;;;;5113754;28;20438;-64
2023/09/30 02:53:04;;;;;;;0.80;0.80;;;;;;;;;;5113764;28;20440;-63
2023/09/30 02:55:31;;;;;;;0.80;0.80;;;;;;;;;;5114086;28;20530;-63
2023/09/30 02:57:58;;;;;;;0.90;0.90;;;;;;;;;;5113409;28;20986;-63
2023/09/30 03:00:26;;;;;;;0.80;0.80;;;;;;;;;;5113677;28;20446;-64
2023/09/30 03:02:53;;;;;;;0.80;0.80;;;;;;;;;;5113717;28;20467;-64
2023/09/30 03:05:23;;;;;;;0.80;0.80;;;;;;;;;;5113608;28;20527;-64
2023/09/30 03:07:51;;;;;;;0.73;0.73;;;;;;;;;;5113685;28;20491;-64
2023/09/30 03:10:20;;;;;;;0.80;0.80;;;;;;;;;;5113820;28;20440;-64
2023/09/30 03:12:47;;;;;;;0.80;0.80;;;;;;;;;;5113651;28;20541;-64
2023/09/30 03:15:14;;;;;;;0.80;0.80;;;;;;;;;;5113230;28;20531;-64
2023/09/30 03:17:41;;;;;;;0.80;0.80;;;;;;;;;;5113706;28;20534;-64
2023/09/30 03:20:11;;;;;;;0.80;0.80;;;;;;;;;;5113452;28;20869;-64
2023/09/30 03:22:40;;;;;;;0.70;0.70;;;;;;;;;;5113408;28;21004;-64
2023/09/30 03:25:08;;;;;;;0.80;0.80;;;;;;;;;;5113450;28;20472;-64
2023/09/30 03:27:36;;;;;;;0.80;0.80;;;;;;;;;;5113979;28;20445;-64
2023/09/30 03:30:03;;;;;;;0.80;0.80;;;;;;;;;;5113269;28;20439;-64
2023/09/30 03:32:32;;;;;;;0.80;0.80;;;;;;;;;;5113342;28;20440;-64
2023/09/30 03:35:00;;;;;;;0.90;0.90;;;;;;;;;;5113991;28;20442;-64
2023/09/30 03:37:31;;;;;;;0.90;0.90;;;;;;;;;;5112928;28;20520;-64
2023/09/30 03:40:00;;;;;;;0.80;0.80;;;;;;;;;;5113265;28;20437;-65
2023/09/30 03:42:29;;;;;;;0.80;0.80;;;;;;;;;;5113218;28;20441;-64
2023/09/30 03:44:57;;;;;;;0.80;0.80;;;;;;;;;;5113687;28;20529;-63
2023/09/30 03:47:24;;;;;;;0.80;0.80;;;;;;;;;;5113144;28;20443;-64
2023/09/30 03:49:51;;;;;;;0.80;0.80;;;;;;;;;;5114565;28;20447;-63
2023/09/30 03:52:22;;;;;;;0.80;0.80;;;;;;;;;;5115893;28;20528;-64
2023/09/30 03:54:49;;;;;;;0.80;0.80;;;;;;;;;;5115221;28;20530;-63
2023/09/30 03:57:19;;;;;;;0.80;0.80;;;;;;;;;;5115966;28;20561;-63
2023/09/30 03:59:46;;;;;;;0.80;0.80;;;;;;;;;;5116144;28;20436;-63
2023/09/30 04:02:14;;;;;;;0.70;0.70;;;;;;;;;;5115791;28;20506;-64
2023/09/30 04:04:42;;;;;;;0.80;0.80;;;;;;;;;;5115604;28;20540;-63
2023/09/30 04:07:10;;;;;;;0.90;0.90;;;;;;;;;;5115943;28;20448;-64
2023/09/30 04:09:37;;;;;;;0.90;0.90;;;;;;;;;;5115760;28;20437;-63
2023/09/30 04:12:04;;;;;;;0.80;0.80;;;;;;;;;;5115859;28;20483;-64
2023/09/30 04:14:33;;;;;;;0.73;0.73;;;;;;;;;;5115691;28;20926;-64
2023/09/30 04:17:00;;;;;;;0.80;0.80;;;;;;;;;;5115997;28;20536;-63
2023/09/30 04:19:30;;;;;;;0.80;0.80;;;;;;;;;;5116082;28;20520;-63
2023/09/30 04:21:57;;;;;;;0.80;0.80;;;;;;;;;;5115485;28;20448;-63
2023/09/30 04:24:25;;;;;;;0.80;0.80;;;;;;;;;;5120062;27;21023;-64
2023/09/30 04:26:56;;;;;;;0.80;0.80;;;;;;;;;;5136334;27;20439;-64
2023/09/30 04:29:24;;;;;;;0.80;0.80;;;;;;;;;;5136366;27;20440;-63
2023/09/30 04:31:52;;;;;;;0.80;0.80;;;;;;;;;;5136426;27;20435;-63
2023/09/30 04:34:21;;;;;;;0.80;0.80;;;;;;;;;;5136915;27;20531;-63
2023/09/30 04:36:48;;;;;;;0.80;0.80;;;;;;;;;;5136446;27;20490;-64
2023/09/30 04:39:16;;;;;;;0.80;0.80;;;;;;;;;;5136646;27;20529;-63
2023/09/30 04:41:43;;;;;;;0.80;0.80;;;;;;;;;;5136662;27;20478;-63
2023/09/30 04:44:11;;;;;;;0.80;0.80;;;;;;;;;;5136748;27;20535;-63
2023/09/30 04:46:40;;;;;;;0.80;0.80;;;;;;;;;;5135416;27;20453;-63
2023/09/30 04:49:08;;;;;;;0.80;0.80;;;;;;;;;;5135482;27;20448;-64
2023/09/30 04:51:37;;;;;;;0.90;0.90;;;;;;;;;;5136269;27;20806;-63
2023/09/30 04:54:06;;;;;;;0.80;0.80;;;;;;;;;;5136299;27;20455;-63
2023/09/30 04:56:34;;;;;;;0.90;0.90;;;;;;;;;;5136178;27;20443;-64
2023/09/30 04:59:02;;;;;;;0.80;0.80;;;;;;;;;;5136297;27;20949;-64
2023/09/30 05:01:29;;;;;;;0.80;0.80;;;;;;;;;;5135023;27;20440;-63
2023/09/30 05:03:57;;;;;;;0.80;0.80;;;;;;;;;;5136237;27;20517;-63
2023/09/30 05:06:25;;;;;;;0.83;0.83;;;;;;;;;;5135077;27;20428;-63
2023/09/30 05:08:53;;;;;;;0.80;0.80;;;;;;;;;;5135261;27;20531;-63
2023/09/30 05:11:20;;;;;;;0.80;0.80;;;;;;;;;;5135426;27;20436;-63
2023/09/30 05:13:47;;;;;;;0.90;0.90;;;;;;;;;;5136007;27;20444;-64
2023/09/30 05:16:14;;;;;;;0.80;0.80;;;;;;;;;;5136179;27;20434;-65
2023/09/30 05:18:42;;;;;;;0.80;0.80;;;;;;;;;;5135924;27;20565;-62
2023/09/30 05:21:10;;;;;;;0.80;0.80;;;;;;;;;;5135552;27;20538;-62
2023/09/30 05:23:39;;;;;;;0.80;0.80;;;;;;;;;;5135502;27;20541;-62
2023/09/30 05:26:06;;;;;;;0.90;0.90;;;;;;;;;;5135706;27;20478;-63
2023/09/30 05:28:34;;;;;;;0.80;0.80;;;;;;;;;;5134567;27;21009;-63
2023/09/30 05:31:02;;;;;;;0.77;0.77;;;;;;;;;;5134992;27;20431;-62
2023/09/30 05:33:30;;;;;;;0.90;0.90;;;;;;;;;;5135050;27;20439;-63
2023/09/30 05:35:57;;;;;;;0.80;0.80;;;;;;;;;;5135449;27;20492;-63
2023/09/30 05:38:26;;;;;;;0.80;0.80;;;;;;;;;;5135206;27;20885;-63
2023/09/30 05:40:54;;;;;;;0.80;0.80;;;;;;;;;;5135367;27;20439;-63
2023/09/30 05:43:22;;;;;;;0.80;0.80;;;;;;;;;;5135368;27;20439;-63
2023/09/30 05:45:54;;;;;;;0.80;0.80;;;;;;;;;;5134577;27;20516;-64
2023/09/30 05:48:21;;;;;;;0.80;0.80;;;;;;;;;;5134343;27;21155;-63
2023/09/30 05:50:49;;;;;;;0.80;0.80;;;;;;;;;;5134619;27;20530;-65
2023/09/30 05:53:16;;;;;;;3.47;3.17;;;;;;;;;;5134829;27;20448;-65
2023/09/30 05:55:45;;;;;;;0.90;0.90;;;;;;;;;;5135100;27;20440;-64
2023/09/30 05:58:15;;;;;;;0.90;0.90;;;;;;;;;;5134593;27;20463;-65
2023/09/30 06:00:43;;;;;;;0.80;0.80;;;;;;;;;;5134961;27;20431;-70
2023/09/30 06:03:10;;;;;;;0.80;0.80;;;;;;;;;;5135038;27;20496;-66
2023/09/30 06:05:40;;;;;;;0.80;0.80;;;;;;;;;;5134553;27;20946;-67
2023/09/30 06:08:10;;;;;;;0.80;0.80;;;;;;;;;;5134004;27;20473;-66
2023/09/30 06:10:42;;;;;;;0.80;0.80;;;;;;;;;;5134095;27;20447;-66
2023/09/30 06:13:09;;;;;;;0.80;0.80;;;;;;;;;;5134392;27;20434;-66
2023/09/30 06:15:41;;;;;;;0.90;0.90;;;;;;;;;;5134412;27;20434;-66
2023/09/30 06:18:09;;;;;;;0.90;0.90;;;;;;;;;;5134723;27;20468;-66
2023/09/30 06:20:36;;;;;;;0.70;0.70;;;;;;;;;;5134040;27;20439;-66
2023/09/30 06:23:04;;;;;;;0.77;0.77;;;;;;;;;;5134438;27;20893;-66
2023/09/30 06:25:33;;;;;;;0.80;0.80;;;;;;;;;;5133954;27;20949;-67
2023/09/30 06:28:00;;;;;;;0.80;0.80;;;;;;;;;;5133791;27;20444;-66
2023/09/30 06:30:30;;;;;;;0.80;0.80;;;;;;;;;;5133955;27;20461;-66
2023/09/30 06:32:59;;;;;;;0.80;0.80;;;;;;;;;;5134010;27;20447;-65
2023/09/30 06:35:27;;;;;;;0.90;0.90;;;;;;;;;;5134140;27;20441;-65
2023/09/30 06:37:54;;;;;;;0.80;0.80;;;;;;;;;;5134182;27;20475;-66
2023/09/30 06:40:21;;;;;;;0.80;0.80;;;;;;;;;;5134212;27;20436;-67
2023/09/30 06:42:48;;;;;;;0.90;0.90;;;;;;;;;;5134401;27;20550;-66
2023/09/30 06:45:17;;;;;;;0.80;0.80;;;;;;;;;;5133811;27;20481;-66
2023/09/30 06:47:45;;;;;;;0.80;0.80;;;;;;;;;;5133280;27;20952;-67
2023/09/30 06:50:16;;;;;;;0.80;0.80;;;;;;;;;;5133327;27;20449;-67
2023/09/30 06:52:45;;;;;;;0.90;0.90;;;;;;;;;;5133797;27;21018;-66
2023/09/30 06:55:14;;;;;;;0.80;0.80;;;;;;;;;;5133866;28;20921;-66
2023/09/30 06:57:41;;;;;;;0.80;0.80;;;;;;;;;;5134039;28;20546;-67
2023/09/30 07:00:09;;;;;;;0.80;0.80;;;;;;;;;;5134030;28;20445;-66
2023/09/30 07:02:37;;;;;;;0.80;0.80;;;;;;;;;;5133737;28;20539;-66
2023/09/30 07:05:07;;;;;;;0.80;0.80;;;;;;;;;;5133442;28;20442;-67
2023/09/30 07:07:35;;;;;;;0.83;0.83;;;;;;;;;;5133058;28;20514;-65
2023/09/30 07:10:02;;;;;;;0.90;0.90;;;;;;;;;;5133355;28;20440;-67
2023/09/30 07:12:31;;;;;;;0.80;0.80;;;;;;;;;;5133774;28;20444;-66
2023/09/30 07:14:59;;;;;;;0.80;0.80;;;;;;;;;;5133884;28;20447;-66
2023/09/30 07:17:27;;;;;;;0.80;0.80;;;;;;;;;;5133765;28;20476;-67
2023/09/30 07:19:54;;;;;;;0.80;0.80;;;;;;;;;;5133605;28;20472;-66
2023/09/30 07:22:21;;;;;;;0.90;0.90;;;;;;;;;;5133785;28;20432;-68
2023/09/30 07:24:50;;;;;;;0.70;0.70;;;;;;;;;;5134613;27;20906;-67
2023/09/30 07:27:17;;;;;;;0.80;0.80;;;;;;;;;;5137152;27;20444;-66
2023/09/30 07:29:45;;;;;;;0.80;0.80;;;;;;;;;;5136951;27;20534;-67
2023/09/30 07:32:13;;;;;;;0.80;0.80;;;;;;;;;;5137427;27;20530;-67
2023/09/30 07:34:40;;;;;;;0.70;0.70;;;;;;;;;;5137601;27;20455;-66
2023/09/30 07:37:07;;;;;;;0.80;0.80;;;;;;;;;;5137784;27;20432;-67
2023/09/30 07:39:35;;;;;;;0.80;0.80;;;;;;;;;;5137263;27;20452;-67
2023/09/30 07:42:04;;;;;;;0.80;0.80;;;;;;;;;;5137625;27;20527;-67
2023/09/30 07:44:31;;;;;;;0.80;0.80;;;;;;;;;;5137127;27;20522;-67
2023/09/30 07:46:59;;;;;;;0.80;0.80;;;;;;;;;;5136747;27;20533;-67
2023/09/30 07:49:27;;;;;;;0.80;0.80;;;;;;;;;;5136416;27;20441;-67
2023/09/30 07:51:54;;;;;;;0.70;0.70;;;;;;;;;;5137124;27;20443;-64
2023/09/30 07:54:22;;;;;;;0.70;0.70;;;;;;;;;;5136711;27;20503;-67
2023/09/30 07:56:49;;;;;;;0.70;0.70;;;;;;;;;;5137285;27;20462;-77
2023/09/30 07:59:17;;;;;;;0.80;0.80;;;;;;;;;;5118747;27;20487;-64
2023/09/30 08:01:45;;;;;;;0.80;0.80;;;;;;;;;;5112592;28;20442;-64
2023/09/30 08:04:12;;;;;;;0.70;0.70;;;;;;;;;;5116412;28;20502;-67
2023/09/30 08:06:39;;;;;;;0.80;0.80;;;;;;;;;;5115998;28;20532;-67
2023/09/30 08:09:09;;;;;;;0.83;0.83;;;;;;;;;;5115855;28;20510;-67
2023/09/30 08:11:37;;;;;;;0.80;0.80;;;;;;;;;;5115828;28;20521;-67
2023/09/30 08:14:06;;;;;;;0.70;0.70;;;;;;;;;;5116053;28;20507;-67
2023/09/30 08:16:35;;;;;;;0.80;0.80;;;;;;;;;;5116310;28;20470;-65
2023/09/30 08:19:03;;;;;;;0.80;0.80;;;;;;;;;;5116052;28;20481;-66
2023/09/30 08:21:30;;;;;;;0.80;0.80;;;;;;;;;;5115978;28;20464;-65
2023/09/30 08:23:57;;;;;;;0.70;0.70;;;;;;;;;;5127845;27;20524;-65
2023/09/30 08:26:24;;;;;;;0.70;0.70;;;;;;;;;;5136255;27;20850;-66
2023/09/30 08:28:52;;;;;;;0.80;0.80;;;;;;;;;;5135787;27;20520;-65
2023/09/30 08:31:19;;;;;;;0.70;0.70;;;;;;;;;;5135782;27;20513;-65
2023/09/30 08:33:48;;;;;;;0.80;0.80;;;;;;;;;;5136509;27;20539;-65
2023/09/30 08:36:15;;;;;;;0.70;0.70;;;;;;;;;;5135151;27;20441;-65
2023/09/30 08:38:43;;;;;;;0.80;0.80;;;;;;;;;;5136232;27;20475;-65
2023/09/30 08:41:11;;;;;;;0.70;0.70;;;;;;;;;;5136403;27;20470;-65
2023/09/30 08:43:39;;;;;;;0.80;0.80;;;;;;;;;;5136512;27;20445;-65
2023/09/30 08:46:07;;;;;;;0.70;0.70;;;;;;;;;;5135908;27;20450;-66
2023/09/30 08:48:34;;;;;;;0.70;0.70;;;;;;;;;;5135626;27;20438;-65
2023/09/30 08:51:03;;;;;;;0.70;0.70;;;;;;;;;;5135560;27;20448;-65
2023/09/30 08:53:31;;;;;;;0.70;0.70;;;;;;;;;;5136492;27;20487;-64
2023/09/30 08:56:00;;;;;;;0.70;0.70;;;;;;;;;;5136334;27;20469;-65
2023/09/30 08:58:28;;;;;;;0.70;0.70;;;;;;;;;;5135932;27;20477;-65
2023/09/30 09:00:56;;;;;;;0.70;0.70;;;;;;;;;;5135654;27;20438;-65
2023/09/30 09:03:23;;;;;;;0.80;0.80;;;;;;;;;;5135780;27;20437;-65
2023/09/30 09:05:56;;;;;;;0.70;0.70;;;;;;;;;;5135892;27;20444;-66
2023/09/30 09:08:24;;;;;;;0.80;0.80;;;;;;;;;;5135369;27;20418;-66
2023/09/30 09:10:56;;;;;;;0.70;0.70;;;;;;;;;;5135214;27;20528;-65
2023/09/30 09:13:24;;;;;;;0.70;0.70;;;;;;;;;;5135444;27;20903;-65
2023/09/30 09:15:51;;;;;;;0.80;0.80;;;;;;;;;;5135544;27;20448;-66
2023/09/30 09:18:33;;;;;;;0.70;0.70;;;;;;;;;;5135587;27;20581;-66
2023/09/30 09:21:09;;;;;;;0.70;0.70;;;;;;;;;;5135436;27;20426;-66
2023/09/30 09:23:42;;;;;;;0.80;0.80;;;;;;;;;;5135768;27;20540;-66
2023/09/30 09:26:09;;;;;;;0.70;0.70;;;;;;;;;;5134855;27;20828;-66
2023/09/30 09:28:38;;;;;;;0.70;0.70;;;;;;;;;;5134960;27;20608;-66
2023/09/30 09:31:21;;;;;;;0.80;0.80;;;;;;;;;;5134736;27;20445;-65
2023/09/30 09:33:48;;;;;;;0.70;0.70;;;;;;;;;;5135619;27;20416;-65
2023/09/30 09:36:15;;;;;;;0.70;0.70;;;;;;;;;;5134953;27;20998;-66
2023/09/30 09:38:47;;;;;;;0.80;0.80;;;;;;;;;;5134873;27;20567;-65
2023/09/30 09:41:15;;;;;;;0.70;0.70;;;;;;;;;;5134916;27;20434;-65
2023/09/30 09:43:43;;;;;;;0.80;0.80;;;;;;;;;;5135536;27;20455;-65
2023/09/30 09:46:11;;;;;;;0.80;0.80;;;;;;;;;;5134844;27;20441;-65
2023/09/30 09:48:39;;;;;;;0.70;0.70;;;;;;;;;;5133852;27;20481;-65
2023/09/30 09:51:07;;;;;;;0.70;0.70;;;;;;;;;;5134127;27;20436;-65
2023/09/30 09:53:37;;;;;;;0.73;0.73;;;;;;;;;;5134163;27;20442;-65
2023/09/30 09:56:07;;;;;;;0.70;0.70;;;;;;;;;;5134730;27;20778;-65
2023/09/30 09:58:34;;;;;;;0.70;0.70;;;;;;;;;;5134395;27;20567;-65
2023/09/30 10:01:03;;;;;;;0.70;0.70;;;;;;;;;;5134795;27;20973;-66
2023/09/30 10:03:30;;;;;;;0.70;0.70;;;;;;;;;;5134848;27;20487;-66
2023/09/30 10:05:58;;;;;;;0.70;0.70;;;;;;;;;;5134266;27;20504;-66
2023/09/30 10:08:32;;;;;;;0.70;0.70;;;;;;;;;;5134051;27;20451;-66
2023/09/30 10:10:59;;;;;;;0.70;0.70;;;;;;;;;;5134158;27;20775;-66
2023/09/30 10:13:46;;;;;;;0.70;0.70;;;;;;;;;;5134663;27;20790;-65
2023/09/30 10:16:28;;;;;;;0.70;0.70;;;;;;;;;;5134082;27;20444;-65
2023/09/30 10:19:10;;;;;;;0.70;0.70;;;;;;;;;;5133526;27;20988;-66
2023/09/30 10:21:37;;;;;;;0.80;0.80;;;;;;;;;;5134556;27;20432;-66
2023/09/30 10:24:19;;;;;;;0.70;0.70;;;;;;;;;;5134250;27;20573;-65
2023/09/30 10:26:46;;;;;;;0.70;0.70;;;;;;;;;;5132951;27;20440;-66
2023/09/30 10:29:13;;;;;;;0.70;0.70;;;;;;;;;;5133481;27;20484;-66
2023/09/30 10:31:51;;;;;;;0.70;0.70;;;;;;;;;;5133811;27;20522;-66
2023/09/30 10:34:26;;;;;;;0.70;0.70;;;;;;;;;;5134295;27;20515;-65
2023/09/30 10:36:53;;;;;;;0.70;0.70;;;;;;;;;;5134656;27;20782;-66
2023/09/30 10:39:35;;;;;;;0.70;0.70;;;;;;;;;;5134404;27;20481;-66
2023/09/30 10:42:02;;;;;;;0.70;0.70;;;;;;;;;;5133092;27;20451;-66
2023/09/30 10:44:37;;;;;;;0.70;0.70;;;;;;;;;;5133440;27;20438;-66
2023/09/30 10:47:19;;;;;;;0.70;0.70;;;;;;;;;;5133405;27;20471;-65
2023/09/30 10:49:48;;;;;;;0.70;0.70;;;;;;;;;;5112551;27;20528;-66
2023/09/30 10:52:23;;;;;;;0.70;0.70;;;;;;;;;;5133285;27;20535;-66
2023/09/30 10:54:51;;;;;;;0.70;0.70;;;;;;;;;;5133447;27;20433;-66
2023/09/30 10:57:28;;;;;;;0.73;0.73;;;;;;;;;;5133744;28;20437;-66
2023/09/30 11:00:10;;;;;;;0.70;0.70;;;;;;;;;;5133058;27;20556;-66
2023/09/30 11:02:49;;;;;;;0.70;0.70;;;;;;;;;;5133364;28;20902;-66
2023/09/30 11:05:17;;;;;;;0.70;0.70;;;;;;;;;;5134350;28;20505;-66
2023/09/30 11:07:46;;;;;;;0.70;0.70;;;;;;;;;;5132871;28;20445;-66
2023/09/30 11:10:16;;;;;;;0.70;0.70;;;;;;;;;;5133115;28;20445;-66
2023/09/30 11:12:54;;;;;;;0.70;0.70;;;;;;;;;;5133563;28;20728;-66
2023/09/30 11:15:22;;;;;;;0.70;0.70;;;;;;;;;;5133711;28;20509;-66
2023/09/30 11:17:49;;;;;;;0.70;0.70;;;;;;;;;;5133314;28;20537;-66
2023/09/30 11:20:19;;;;;;;0.70;0.70;;;;;;;;;;5134427;28;20518;-66
2023/09/30 11:22:46;;;;;;;0.70;0.70;;;;;;;;;;5133815;28;20448;-66
2023/09/30 11:25:19;;;;;;;0.70;0.70;;;;;;;;;;5133157;28;20548;-66
2023/09/30 11:27:47;;;;;;;0.70;0.70;;;;;;;;;;5133477;28;20494;-66
2023/09/30 11:30:15;;;;;;;0.70;0.70;;;;;;;;;;5133072;28;20433;-66
2023/09/30 11:32:43;;;;;;;0.70;0.70;;;;;;;;;;5133557;28;20930;-66
2023/09/30 11:35:12;;;;;;;0.70;0.70;;;;;;;;;;5133222;28;20433;-66
2023/09/30 11:37:44;;;;;;;0.70;0.70;;;;;;;;;;5133389;28;20783;-66
2023/09/30 11:40:13;;;;;;;0.70;0.70;;;;;;;;;;5133118;28;20541;-66
2023/09/30 11:42:41;;;;;;;0.80;0.80;;;;;;;;;;5133048;28;20513;-66
2023/09/30 11:45:20;;;;;;;0.70;0.70;;;;;;;;;;5133306;28;20520;-66
2023/09/30 11:47:48;;;;;;;0.70;0.70;;;;;;;;;;5133382;28;20421;-66
2023/09/30 11:50:16;;;;;;;0.70;0.70;;;;;;;;;;5133501;28;20457;-65
2023/09/30 11:52:47;;;;;;;0.80;0.80;;;;;;;;;;5133272;28;20532;-66
2023/09/30 11:55:16;;;;;;;0.70;0.70;;;;;;;;;;5133109;28;20443;-66
2023/09/30 11:57:43;;;;;;;0.70;0.70;;;;;;;;;;5132937;28;20514;-66
2023/09/30 12:00:14;;;;;;;0.70;0.70;;;;;;;;;;5133022;28;20469;-66
2023/09/30 12:02:41;;;;;;;0.70;0.70;;;;;;;;;;5133190;28;20430;-66
2023/09/30 12:05:11;;;;;;;0.70;0.70;;;;;;;;;;5132899;28;20437;-66
2023/09/30 12:07:41;;;;;;;0.70;0.70;;;;;;;;;;5132941;28;20956;-66
2023/09/30 12:10:10;;;;;;;0.70;0.70;;;;;;;;;;5133566;27;20487;-66
2023/09/30 12:12:39;;;;;;;0.70;0.70;;;;;;;;;;5137253;27;20538;-66
2023/09/30 12:15:08;;;;;;;0.70;0.70;;;;;;;;;;5136979;27;20801;-66
2023/09/30 12:17:37;;;;;;;0.70;0.70;;;;;;;;;;5136668;27;20451;-66
2023/09/30 12:20:04;;;;;;;0.70;0.70;;;;;;;;;;5115972;27;20975;-66
2023/09/30 12:22:32;;;;;;;0.70;0.70;;;;;;;;;;5115598;28;20545;-66
2023/09/30 12:25:00;;;;;;;0.70;0.70;;;;;;;;;;5115670;28;20472;-66
2023/09/30 12:27:29;;;;;;;0.70;0.70;;;;;;;;;;5115984;28;20450;-66
2023/09/30 12:29:56;;;;;;;0.70;0.70;;;;;;;;;;5115869;28;20454;-66
2023/09/30 12:32:24;;;;;;;0.70;0.70;;;;;;;;;;5115738;28;20836;-66
2023/09/30 12:34:51;;;;;;;0.70;0.70;;;;;;;;;;5115389;28;20445;-66
2023/09/30 12:37:18;;;;;;;1.27;1.17;;;;;;;;;;5115830;28;20981;-66
2023/09/30 12:39:45;;;;;;;0.70;0.70;;;;;;;;;;5114945;28;20471;-66
2023/09/30 12:42:14;;;;;;;0.80;0.80;;;;;;;;;;5114780;28;20439;-66
2023/09/30 12:44:42;;;;;;;0.80;0.80;;;;;;;;;;5115089;28;20983;-66
2023/09/30 12:47:09;;;;;;;0.70;0.70;;;;;;;;;;5115581;28;20433;-66
2023/09/30 12:49:37;;;;;;;0.70;0.70;;;;;;;;;;5114983;28;20529;-66
2023/09/30 12:52:04;;;;;;;0.70;0.70;;;;;;;;;;5115175;28;20477;-66
2023/09/30 12:54:32;;;;;;;0.70;0.70;;;;;;;;;;5115291;28;20451;-66
2023/09/30 12:56:59;;;;;;;0.70;0.70;;;;;;;;;;5115411;28;20441;-66
2023/09/30 12:59:26;;;;;;;0.70;0.70;;;;;;;;;;5114430;28;20481;-66
2023/09/30 13:01:56;;;;;;;0.70;0.70;;;;;;;;;;5114662;28;20923;-66
2023/09/30 13:04:23;;;;;;;0.70;0.70;;;;;;;;;;5114468;28;20536;-66
2023/09/30 13:06:51;;;;;;;0.70;0.70;;;;;;;;;;5115409;28;20801;-66
2023/09/30 13:09:19;;;;;;;0.70;0.70;;;;;;;;;;5115142;28;20453;-67
2023/09/30 13:11:47;;;;;;;0.70;0.70;;;;;;;;;;5115044;28;20447;-64
2023/09/30 13:14:14;;;;;;;0.70;0.70;;;;;;;;;;5114942;28;20442;-64
2023/09/30 13:16:42;;;;;;;0.70;0.70;;;;;;;;;;5113807;27;20450;-63
2023/09/30 13:19:11;;;;;;;0.70;0.70;;;;;;;;;;5125352;27;20438;-64
2023/09/30 13:21:40;;;;;;;0.70;0.70;;;;;;;;;;5134789;27;20442;-67
2023/09/30 13:24:10;;;;;;;0.70;0.70;;;;;;;;;;5134290;27;20478;-67
2023/09/30 13:26:37;;;;;;;0.70;0.70;;;;;;;;;;5136001;27;20430;-67
2023/09/30 13:29:05;;;;;;;0.70;0.70;;;;;;;;;;5135283;27;20509;-67
2023/09/30 13:31:32;;;;;;;0.70;0.70;;;;;;;;;;5135013;27;20428;-66
2023/09/30 13:33:59;;;;;;;0.70;0.70;;;;;;;;;;5135294;27;20450;-66
2023/09/30 13:36:28;;;;;;;0.70;0.70;;;;;;;;;;5134879;27;20525;-67
2023/09/30 13:38:55;;;;;;;0.70;0.70;;;;;;;;;;5135153;27;20863;-66
2023/09/30 13:41:22;;;;;;;0.70;0.70;;;;;;;;;;5134444;27;20552;-67
2023/09/30 13:43:49;;;;;;;0.70;0.70;;;;;;;;;;5134330;27;20520;-67
2023/09/30 13:46:17;;;;;;;0.70;0.70;;;;;;;;;;5134882;27;20494;-67
2023/09/30 13:48:44;;;;;;;0.70;0.70;;;;;;;;;;5134744;27;20453;-67
2023/09/30 13:51:11;;;;;;;0.70;0.70;;;;;;;;;;5134563;27;20981;-66
2023/09/30 13:53:40;;;;;;;0.70;0.70;;;;;;;;;;5134830;27;20492;-67
2023/09/30 13:56:10;;;;;;;0.80;0.80;;;;;;;;;;5135260;27;20449;-67
2023/09/30 13:58:37;;;;;;;0.70;0.70;;;;;;;;;;5134356;27;20442;-67
2023/09/30 14:01:04;;;;;;;0.70;0.70;;;;;;;;;;5133892;27;20465;-67
2023/09/30 14:03:32;;;;;;;0.70;0.70;;;;;;;;;;5134419;27;20524;-67
2023/09/30 14:05:59;;;;;;;0.70;0.70;;;;;;;;;;5134473;27;20436;-67
2023/09/30 14:08:26;;;;;;;0.70;0.70;;;;;;;;;;5134681;27;20496;-67
2023/09/30 14:10:55;;;;;;;0.70;0.70;;;;;;;;;;5134712;27;20437;-67
2023/09/30 14:13:23;;;;;;;0.70;0.70;;;;;;;;;;5134531;27;20442;-67
2023/09/30 14:15:52;;;;;;;0.70;0.70;;;;;;;;;;5134326;27;20471;-67
2023/09/30 14:18:20;;;;;;;0.70;0.70;;;;;;;;;;5134077;27;20863;-69
2023/09/30 14:20:47;;;;;;;0.70;0.70;;;;;;;;;;5133190;27;20473;-67
2023/09/30 14:23:15;;;;;;;0.70;0.70;;;;;;;;;;5133563;27;20833;-68
2023/09/30 14:25:42;;;;;;;0.70;0.70;;;;;;;;;;5133654;27;20473;-67
2023/09/30 14:28:11;;;;;;;2.40;1.37;;;;;;;;;;5133920;27;20533;-68
2023/09/30 14:30:38;;;;;;;0.70;0.70;;;;;;;;;;5134011;27;20441;-67
2023/09/30 14:33:05;;;;;;;0.70;0.70;;;;;;;;;;5133945;27;20444;-67
2023/09/30 14:35:35;;;;;;;0.70;0.70;;;;;;;;;;5132954;27;20521;-67
2023/09/30 14:38:02;;;;;;;0.70;0.70;;;;;;;;;;5134010;27;20453;-67
2023/09/30 14:40:29;;;;;;;0.70;0.70;;;;;;;;;;5133384;27;20824;-68
2023/09/30 14:42:56;;;;;;;0.70;0.70;;;;;;;;;;5133926;27;20528;-67
2023/09/30 14:45:25;;;;;;;0.70;0.70;;;;;;;;;;5133938;27;20523;-68
2023/09/30 14:47:52;;;;;;;0.70;0.70;;;;;;;;;;5134098;27;20498;-69
2023/09/30 14:50:19;;;;;;;0.70;0.70;;;;;;;;;;5134009;27;20440;-68